Stephen R Warden — WDC6523 — position and weather

sailwx.info

Track history (hours):
 
Tides and Currents Weather Stations Pressure Air Temp Water Temp Dewpoint Dewpoint Depression Visibility Wind Speed Wind Dir Waves Ship Positions

Stephen R Warden

More information available from US FCC via Universal Licensing System and Coast Guard Vessel Documentation Center.

Last reported at 2014-Sep-18 07:33 UTC. Time now 2014-Sep-18 07:44 UTC.
Position N 30°03' W 090°32'.

Length 37 m; draft 3 m.

Type: Towing. MMSI: 367057460.

Date/timePositionNaut miles runAvg speedWind from/ knotsBaromVisibWave heightAir tempDewpointWater temp
2014-Sep-18 07:33N 30°03' W 090°32'7 7.1
2014-Sep-18 06:33N 30°03' W 090°40'5 5.2
2014-Sep-18 05:33N 30°01' W 090°45'0 0.0
2014-Sep-18 04:33N 30°01' W 090°45'0 0.0
2014-Sep-18 03:33N 30°01' W 090°45'1 0.8
2014-Sep-18 02:33N 30°01' W 090°44'0 0.0
2014-Sep-18 01:33N 30°01' W 090°44'0 0.3
2014-Sep-18 00:27N 30°01' W 090°44'7 2.1
2014-Sep-17 21:12N 30°02' W 090°36'1 1.4
2014-Sep-17 20:33N 30°03' W 090°35'0 0.3
2014-Sep-17 19:33N 30°03' W 090°35'2 2.0
2014-Sep-17 18:33N 30°03' W 090°33'0 0.0
2014-Sep-17 17:33N 30°03' W 090°33'0 0.1
2014-Sep-17 16:33N 30°03' W 090°33'0 0.1
2014-Sep-17 15:33N 30°03' W 090°33'1 0.6
2014-Sep-17 14:33N 30°03' W 090°32'0 0.0
2014-Sep-17 13:33N 30°03' W 090°32'0 0.0
2014-Sep-17 12:33N 30°03' W 090°32'0 0.0
2014-Sep-17 11:33N 30°03' W 090°32'0 0.0
2014-Sep-17 10:33N 30°03' W 090°32'0 0.0
2014-Sep-17 09:33N 30°03' W 090°32'0 0.0
2014-Sep-17 08:33N 30°03' W 090°32'0 0.0
2014-Sep-17 07:33N 30°03' W 090°32'0 0.0
2014-Sep-17 06:33N 30°03' W 090°32'0 0.0
2014-Sep-17 05:33N 30°03' W 090°32'0 0.0
2014-Sep-17 04:33N 30°03' W 090°32'0 0.0
2014-Sep-17 03:33N 30°03' W 090°32'0 0.0
2014-Sep-17 02:33N 30°03' W 090°32'0 0.0
2014-Sep-17 01:33N 30°03' W 090°32'1 0.9
2014-Sep-17 00:33N 30°03' W 090°31'2 1.7
2014-Sep-16 23:33N 30°03' W 090°29'7 6.6
2014-Sep-16 22:33N 30°02' W 090°37'4 0.4
2014-Sep-16 13:13N 30°02' W 090°41'2 3.3
2014-Sep-16 12:31N 30°03' W 090°39'3 3.0
2014-Sep-16 11:33N 30°03' W 090°35'3 2.7
2014-Sep-16 10:33N 30°03' W 090°32'3 3.3
2014-Sep-16 09:33N 30°02' W 090°28'2 2.5
2014-Sep-16 08:33N 29°60' W 090°27'2 1.7
2014-Sep-16 07:33N 29°60' W 090°25'2 2.3
2014-Sep-16 06:33N 29°58' W 090°24'3 2.9
2014-Sep-16 05:21N 29°56' W 090°20'6 3.0
2014-Sep-16 03:11N 29°56' W 090°13'6 0.4
2014-Sep-15 11:25N 29°56' W 090°20'2 0.3
2014-Sep-15 05:10N 29°56' W 090°22'3 5.1
2014-Sep-15 04:33N 29°59' W 090°24'1 1.5
2014-Sep-15 03:32N 29°60' W 090°25'3 2.6
2014-Sep-15 02:33N 30°00' W 090°28'5 4.7
2014-Sep-15 01:33N 30°03' W 090°33'5 4.9
2014-Sep-15 00:33N 30°03' W 090°38'6 5.6
2014-Sep-14 23:32N 30°01' W 090°45'1 0.7
2014-Sep-14 22:33N 30°01' W 090°45'1 1.1
2014-Sep-14 21:33N 30°01' W 090°44'1 1.2
2014-Sep-14 20:33N 30°01' W 090°43'1 1.0
2014-Sep-14 19:33N 30°02' W 090°42'0 0.0
2014-Sep-14 18:33N 30°02' W 090°42'0 0.0
2014-Sep-14 17:33N 30°02' W 090°42'3 1.6
2014-Sep-14 15:25N 30°02' W 090°38'3 3.5
2014-Sep-14 14:33N 30°03' W 090°35'6 3.1
2014-Sep-14 12:33N 30°00' W 090°28'4 4.0
2014-Sep-14 11:33N 29°59' W 090°24'3 3.3
2014-Sep-14 10:33N 29°56' W 090°21'12 0.3
2014-Sep-12 18:33N 30°03' W 090°33'2 1.9
2014-Sep-12 17:33N 30°03' W 090°35'0 0.3
2014-Sep-12 16:33N 30°03' W 090°35'10 2.4
2014-Sep-12 12:33N 30°01' W 090°46'0 0.2
2014-Sep-12 11:33N 30°01' W 090°46'1 0.6
2014-Sep-12 10:33N 30°01' W 090°45'0 0.0
2014-Sep-12 09:33N 30°01' W 090°45'0 0.0
2014-Sep-12 08:33N 30°01' W 090°45'0 0.0
2014-Sep-12 07:33N 30°01' W 090°45'0 0.0
2014-Sep-12 06:33N 30°01' W 090°45'0 0.0
2014-Sep-12 05:33N 30°01' W 090°45'2 2.3
2014-Sep-12 04:33N 30°01' W 090°42'4 3.7
2014-Sep-12 03:33N 30°03' W 090°38'4 3.5
2014-Sep-12 02:33N 30°03' W 090°34'4 4.0
2014-Sep-12 01:33N 30°03' W 090°30'4 3.5
2014-Sep-12 00:33N 29°60' W 090°28'4 3.9
2014-Sep-11 23:33N 29°58' W 090°24'4 3.8
2014-Sep-11 22:33N 29°56' W 090°20'3 0.1
2014-Sep-11 00:04N 29°57' W 090°18'3 6.3
2014-Sep-10 23:32N 29°56' W 090°21'6 5.7
2014-Sep-10 22:33N 29°60' W 090°26'5 5.1
2014-Sep-10 21:33N 30°03' W 090°31'14 3.4
2014-Sep-10 17:19N 30°00' W 090°47'15 2.2
2014-Sep-10 10:33N 30°08' W 091°02'0 0.1
2014-Sep-10 09:33N 30°08' W 091°02'2 1.4
2014-Sep-10 08:15N 30°09' W 090°60'6 8.0
2014-Sep-10 07:32N 30°13' W 091°05'3 0.8
2014-Sep-10 04:13N 30°11' W 091°08'12 2.4
2014-Sep-09 23:07N 30°06' W 090°55'4 5.0
2014-Sep-09 22:23N 30°04' W 090°51'13 1.4
2014-Sep-09 13:29N 30°02' W 090°37'5 5.1
2014-Sep-09 12:33N 30°03' W 090°32'2 2.4
2014-Sep-09 11:33N 30°03' W 090°29'0 0.0
2014-Sep-09 10:33N 30°03' W 090°29'0 0.0
2014-Sep-09 09:33N 30°03' W 090°29'0 0.0
2014-Sep-09 08:33N 30°03' W 090°29'0 0.0
2014-Sep-09 07:33N 30°03' W 090°29'3 3.0
2014-Sep-09 06:33N 30°00' W 090°28'5 4.3
2014-Sep-09 05:30N 29°58' W 090°24'  
Track history (hours):
 
Tides and Currents Weather Stations Pressure Air Temp Water Temp Dewpoint Dewpoint Depression Visibility Wind Speed Wind Dir Waves Ship Positions

Stephen R Warden

More information available from US FCC via Universal Licensing System and Coast Guard Vessel Documentation Center.

Last reported at 2014-Sep-18 07:33 UTC. Time now 2014-Sep-18 07:44 UTC.
Position N 30°03' W 090°32'.

Length 37 m; draft 3 m.

Type: Towing. MMSI: 367057460.

Date/timePositionNaut miles runAvg speedWind from/ knotsBaromVisibWave heightAir tempDewpointWater temp
2014-Sep-18 07:33N 30°03' W 090°32'7 7.1
2014-Sep-18 06:33N 30°03' W 090°40'5 5.2
2014-Sep-18 05:33N 30°01' W 090°45'0 0.0
2014-Sep-18 04:33N 30°01' W 090°45'0 0.0
2014-Sep-18 03:33N 30°01' W 090°45'1 0.8
2014-Sep-18 02:33N 30°01' W 090°44'0 0.0
2014-Sep-18 01:33N 30°01' W 090°44'0 0.3
2014-Sep-18 00:27N 30°01' W 090°44'7 2.1
2014-Sep-17 21:12N 30°02' W 090°36'1 1.4
2014-Sep-17 20:33N 30°03' W 090°35'0 0.3
2014-Sep-17 19:33N 30°03' W 090°35'2 2.0
2014-Sep-17 18:33N 30°03' W 090°33'0 0.0
2014-Sep-17 17:33N 30°03' W 090°33'0 0.1
2014-Sep-17 16:33N 30°03' W 090°33'0 0.1
2014-Sep-17 15:33N 30°03' W 090°33'1 0.6
2014-Sep-17 14:33N 30°03' W 090°32'0 0.0
2014-Sep-17 13:33N 30°03' W 090°32'0 0.0
2014-Sep-17 12:33N 30°03' W 090°32'0 0.0
2014-Sep-17 11:33N 30°03' W 090°32'0 0.0
2014-Sep-17 10:33N 30°03' W 090°32'0 0.0
2014-Sep-17 09:33N 30°03' W 090°32'0 0.0
2014-Sep-17 08:33N 30°03' W 090°32'0 0.0
2014-Sep-17 07:33N 30°03' W 090°32'0 0.0
2014-Sep-17 06:33N 30°03' W 090°32'0 0.0
2014-Sep-17 05:33N 30°03' W 090°32'0 0.0
2014-Sep-17 04:33N 30°03' W 090°32'0 0.0
2014-Sep-17 03:33N 30°03' W 090°32'0 0.0
2014-Sep-17 02:33N 30°03' W 090°32'0 0.0
2014-Sep-17 01:33N 30°03' W 090°32'1 0.9
2014-Sep-17 00:33N 30°03' W 090°31'2 1.7
2014-Sep-16 23:33N 30°03' W 090°29'7 6.6
2014-Sep-16 22:33N 30°02' W 090°37'4 0.4
2014-Sep-16 13:13N 30°02' W 090°41'2 3.3
2014-Sep-16 12:31N 30°03' W 090°39'3 3.0
2014-Sep-16 11:33N 30°03' W 090°35'3 2.7
2014-Sep-16 10:33N 30°03' W 090°32'3 3.3
2014-Sep-16 09:33N 30°02' W 090°28'2 2.5
2014-Sep-16 08:33N 29°60' W 090°27'2 1.7
2014-Sep-16 07:33N 29°60' W 090°25'2 2.3
2014-Sep-16 06:33N 29°58' W 090°24'3 2.9
2014-Sep-16 05:21N 29°56' W 090°20'6 3.0
2014-Sep-16 03:11N 29°56' W 090°13'6 0.4
2014-Sep-15 11:25N 29°56' W 090°20'2 0.3
2014-Sep-15 05:10N 29°56' W 090°22'3 5.1
2014-Sep-15 04:33N 29°59' W 090°24'1 1.5
2014-Sep-15 03:32N 29°60' W 090°25'3 2.6
2014-Sep-15 02:33N 30°00' W 090°28'5 4.7
2014-Sep-15 01:33N 30°03' W 090°33'5 4.9
2014-Sep-15 00:33N 30°03' W 090°38'6 5.6
2014-Sep-14 23:32N 30°01' W 090°45'1 0.7
2014-Sep-14 22:33N 30°01' W 090°45'1 1.1
2014-Sep-14 21:33N 30°01' W 090°44'1 1.2
2014-Sep-14 20:33N 30°01' W 090°43'1 1.0
2014-Sep-14 19:33N 30°02' W 090°42'0 0.0
2014-Sep-14 18:33N 30°02' W 090°42'0 0.0
2014-Sep-14 17:33N 30°02' W 090°42'3 1.6
2014-Sep-14 15:25N 30°02' W 090°38'3 3.5
2014-Sep-14 14:33N 30°03' W 090°35'6 3.1
2014-Sep-14 12:33N 30°00' W 090°28'4 4.0
2014-Sep-14 11:33N 29°59' W 090°24'3 3.3
2014-Sep-14 10:33N 29°56' W 090°21'12 0.3
2014-Sep-12 18:33N 30°03' W 090°33'2 1.9
2014-Sep-12 17:33N 30°03' W 090°35'0 0.3
2014-Sep-12 16:33N 30°03' W 090°35'10 2.4
2014-Sep-12 12:33N 30°01' W 090°46'0 0.2
2014-Sep-12 11:33N 30°01' W 090°46'1 0.6
2014-Sep-12 10:33N 30°01' W 090°45'0 0.0
2014-Sep-12 09:33N 30°01' W 090°45'0 0.0
2014-Sep-12 08:33N 30°01' W 090°45'0 0.0
2014-Sep-12 07:33N 30°01' W 090°45'0 0.0
2014-Sep-12 06:33N 30°01' W 090°45'0 0.0
2014-Sep-12 05:33N 30°01' W 090°45'2 2.3
2014-Sep-12 04:33N 30°01' W 090°42'4 3.7
2014-Sep-12 03:33N 30°03' W 090°38'4 3.5
2014-Sep-12 02:33N 30°03' W 090°34'4 4.0
2014-Sep-12 01:33N 30°03' W 090°30'4 3.5
2014-Sep-12 00:33N 29°60' W 090°28'4 3.9
2014-Sep-11 23:33N 29°58' W 090°24'4 3.8
2014-Sep-11 22:33N 29°56' W 090°20'3 0.1
2014-Sep-11 00:04N 29°57' W 090°18'3 6.3
2014-Sep-10 23:32N 29°56' W 090°21'6 5.7
2014-Sep-10 22:33N 29°60' W 090°26'5 5.1
2014-Sep-10 21:33N 30°03' W 090°31'14 3.4
2014-Sep-10 17:19N 30°00' W 090°47'15 2.2
2014-Sep-10 10:33N 30°08' W 091°02'0 0.1
2014-Sep-10 09:33N 30°08' W 091°02'2 1.4
2014-Sep-10 08:15N 30°09' W 090°60'6 8.0
2014-Sep-10 07:32N 30°13' W 091°05'3 0.8
2014-Sep-10 04:13N 30°11' W 091°08'12 2.4
2014-Sep-09 23:07N 30°06' W 090°55'4 5.0
2014-Sep-09 22:23N 30°04' W 090°51'13 1.4
2014-Sep-09 13:29N 30°02' W 090°37'5 5.1
2014-Sep-09 12:33N 30°03' W 090°32'2 2.4
2014-Sep-09 11:33N 30°03' W 090°29'0 0.0
2014-Sep-09 10:33N 30°03' W 090°29'0 0.0
2014-Sep-09 09:33N 30°03' W 090°29'0 0.0
2014-Sep-09 08:33N 30°03' W 090°29'0 0.0
2014-Sep-09 07:33N 30°03' W 090°29'3 3.0
2014-Sep-09 06:33N 30°00' W 090°28'5 4.3
2014-Sep-09 05:30N 29°58' W 090°24'  

Dump ship's entire track history